Time;durP1;ratioP1;P1;durP2;ratioP2;P2;SDS_P1;SDS_P2;PMS_P1;PMS_P2;Temp;Humidity;BMP_temperature;BMP_pressure;BME280_temperature;BME280_humidity;BME280_pressure;Samples;Min_cycle;Max_cycle;Signal;HPM_P1;HPM_P2
2024/02/29 00:00:06;;;;;;;11.47;6.90;;;;;;;;;;702493;28;944;-65
2024/02/29 00:00:27;;;;;;;11.80;7.30;;;;;;;;;;705273;28;717;-64
2024/02/29 00:00:47;;;;;;;11.48;7.50;;;;;;;;;;705918;28;808;-64
2024/02/29 00:01:08;;;;;;;11.30;6.77;;;;;;;;;;702679;28;2246;-64
2024/02/29 00:01:28;;;;;;;12.00;6.93;;;;;;;;;;703612;28;4279;-64
2024/02/29 00:01:48;;;;;;;13.25;6.72;;;;;;;;;;704672;28;1339;-64
2024/02/29 00:02:12;;;;;;;13.20;6.93;;;;;;;;;;702005;28;1944;-64
2024/02/29 00:02:32;;;;;;;11.18;6.80;;;;;;;;;;704248;28;927;-64
2024/02/29 00:02:52;;;;;;;11.77;7.03;;;;;;;;;;704934;28;2023;-63
2024/02/29 00:03:13;;;;;;;11.47;6.53;;;;;;;;;;703781;27;1474;-64
2024/02/29 00:03:33;;;;;;;12.23;6.60;;;;;;;;;;703289;28;1257;-65
2024/02/29 00:03:53;;;;;;;11.60;6.90;;;;;;;;;;703765;28;947;-64
2024/02/29 00:04:13;;;;;;;10.50;6.37;;;;;;;;;;700724;28;1973;-64
2024/02/29 00:04:34;;;;;;;10.83;6.47;;;;;;;;;;703589;27;4447;-65
2024/02/29 00:04:54;;;;;;;10.73;6.47;;;;;;;;;;704351;28;931;-64
2024/02/29 00:05:15;;;;;;;11.07;6.70;;;;;;;;;;701758;28;1740;-64
2024/02/29 00:05:36;;;;;;;11.83;6.80;;;;;;;;;;702794;28;924;-64
2024/02/29 00:05:56;;;;;;;10.57;6.30;;;;;;;;;;700567;28;885;-64
2024/02/29 00:06:16;;;;;;;10.25;6.03;;;;;;;;;;700889;28;1590;-64
2024/02/29 00:06:37;;;;;;;10.37;6.40;;;;;;;;;;702650;28;919;-64
2024/02/29 00:06:57;;;;;;;11.07;6.47;;;;;;;;;;702116;28;985;-64
2024/02/29 00:07:18;;;;;;;10.95;6.50;;;;;;;;;;702710;28;900;-63
2024/02/29 00:07:38;;;;;;;12.77;6.90;;;;;;;;;;698892;28;4444;-64
2024/02/29 00:07:59;;;;;;;13.80;7.03;;;;;;;;;;701199;28;915;-64
2024/02/29 00:08:19;;;;;;;11.07;6.80;;;;;;;;;;702002;28;932;-64
2024/02/29 00:08:39;;;;;;;10.68;6.60;;;;;;;;;;701132;28;2287;-64
2024/02/29 00:08:59;;;;;;;10.63;6.47;;;;;;;;;;700836;28;971;-63
2024/02/29 00:09:20;;;;;;;10.63;6.63;;;;;;;;;;700175;28;3899;-64
2024/02/29 00:09:40;;;;;;;10.25;6.97;;;;;;;;;;701792;28;950;-64
2024/02/29 00:10:00;;;;;;;10.93;6.80;;;;;;;;;;700123;28;993;-64
2024/02/29 00:10:20;;;;;;;12.17;7.00;;;;;;;;;;702730;28;4440;-64
2024/02/29 00:10:41;;;;;;;10.57;6.43;;;;;;;;;;702563;28;940;-64
2024/02/29 00:11:01;;;;;;;10.60;6.57;;;;;;;;;;699090;28;1833;-64
2024/02/29 00:11:21;;;;;;;12.13;6.83;;;;;;;;;;702308;28;1034;-64
2024/02/29 00:11:41;;;;;;;11.95;6.93;;;;;;;;;;702848;28;916;-63
2024/02/29 00:12:03;;;;;;;11.27;6.53;;;;;;;;;;700420;28;1837;-64
2024/02/29 00:12:24;;;;;;;10.68;6.63;;;;;;;;;;702208;28;896;-64
2024/02/29 00:12:44;;;;;;;11.43;6.70;;;;;;;;;;699761;28;742;-64
2024/02/29 00:13:05;;;;;;;10.75;6.60;;;;;;;;;;698985;28;1782;-64
2024/02/29 00:13:25;;;;;;;11.52;6.80;;;;;;;;;;701820;28;5214;-67
2024/02/29 00:13:46;;;;;;;11.17;6.60;;;;;;;;;;701274;28;975;-65
2024/02/29 00:14:06;;;;;;;10.55;6.32;;;;;;;;;;698098;28;1781;-63
2024/02/29 00:14:26;;;;;;;11.33;6.77;;;;;;;;;;702242;28;892;-64
2024/02/29 00:14:47;;;;;;;10.80;6.90;;;;;;;;;;705138;28;848;-64
2024/02/29 00:15:07;;;;;;;11.82;7.10;;;;;;;;;;702233;28;1898;-64
2024/02/29 00:15:29;;;;;;;12.00;7.17;;;;;;;;;;701172;28;1179;-64
2024/02/29 00:15:49;;;;;;;10.95;6.63;;;;;;;;;;701208;28;967;-64
2024/02/29 00:16:09;;;;;;;11.17;6.60;;;;;;;;;;699677;28;1890;-64
2024/02/29 00:16:30;;;;;;;11.30;6.87;;;;;;;;;;701459;28;4298;-64
2024/02/29 00:16:50;;;;;;;11.00;7.10;;;;;;;;;;701913;28;1021;-64
2024/02/29 00:17:10;;;;;;;12.70;7.20;;;;;;;;;;699632;28;894;-64
2024/02/29 00:17:31;;;;;;;12.13;7.30;;;;;;;;;;702500;28;931;-64
2024/02/29 00:17:51;;;;;;;12.17;7.07;;;;;;;;;;702019;28;980;-64
2024/02/29 00:18:12;;;;;;;12.45;7.00;;;;;;;;;;699853;28;1708;-64
2024/02/29 00:18:32;;;;;;;12.32;7.20;;;;;;;;;;701377;28;955;-64
2024/02/29 00:18:53;;;;;;;12.43;7.57;;;;;;;;;;701651;28;1017;-64
2024/02/29 00:19:13;;;;;;;11.47;7.07;;;;;;;;;;699053;28;1557;-64
2024/02/29 00:19:34;;;;;;;12.48;7.20;;;;;;;;;;704055;28;4439;-64
2024/02/29 00:19:54;;;;;;;11.83;7.10;;;;;;;;;;704823;28;962;-64
2024/02/29 00:20:15;;;;;;;12.10;6.93;;;;;;;;;;702901;28;2048;-64
2024/02/29 00:20:36;;;;;;;12.27;7.13;;;;;;;;;;702442;28;1025;-64
2024/02/29 00:20:57;;;;;;;10.98;6.72;;;;;;;;;;702516;28;979;-63
2024/02/29 00:21:17;;;;;;;10.82;6.47;;;;;;;;;;699662;28;1712;-64
2024/02/29 00:21:37;;;;;;;11.10;6.63;;;;;;;;;;703453;28;1054;-63
2024/02/29 00:21:58;;;;;;;11.17;6.67;;;;;;;;;;701060;28;1018;-65
2024/02/29 00:22:18;;;;;;;11.18;6.60;;;;;;;;;;695681;28;1123;-64
2024/02/29 00:22:38;;;;;;;11.07;6.53;;;;;;;;;;700538;28;4279;-63
2024/02/29 00:22:59;;;;;;;12.23;6.88;;;;;;;;;;699991;28;2046;-65
2024/02/29 00:23:19;;;;;;;11.67;7.00;;;;;;;;;;700944;28;904;-64
2024/02/29 00:23:43;;;;;;;11.73;7.00;;;;;;;;;;701068;28;923;-64
2024/02/29 00:24:03;;;;;;;11.05;6.75;;;;;;;;;;699191;28;1736;-64
2024/02/29 00:24:23;;;;;;;12.15;7.25;;;;;;;;;;703736;28;943;-64
2024/02/29 00:24:44;;;;;;;11.37;7.07;;;;;;;;;;702055;28;966;-64
2024/02/29 00:25:04;;;;;;;10.90;6.83;;;;;;;;;;701114;28;894;-64
2024/02/29 00:25:25;;;;;;;11.83;6.13;;;;;;;;;;702840;28;4489;-64
2024/02/29 00:25:45;;;;;;;12.07;6.43;;;;;;;;;;702564;28;1176;-65
2024/02/29 00:26:05;;;;;;;11.75;7.05;;;;;;;;;;697893;28;1615;-64
2024/02/29 00:26:26;;;;;;;11.63;7.17;;;;;;;;;;699140;28;837;-64
2024/02/29 00:26:46;;;;;;;12.48;7.63;;;;;;;;;;700856;28;908;-64
2024/02/29 00:27:07;;;;;;;11.87;7.03;;;;;;;;;;700344;28;1677;-64
2024/02/29 00:27:27;;;;;;;11.88;7.00;;;;;;;;;;700968;28;1009;-64
2024/02/29 00:27:47;;;;;;;11.13;6.90;;;;;;;;;;700610;28;1034;-64
2024/02/29 00:28:08;;;;;;;11.17;6.70;;;;;;;;;;702476;28;2234;-64
2024/02/29 00:28:28;;;;;;;11.13;6.80;;;;;;;;;;704952;28;4398;-64
2024/02/29 00:28:48;;;;;;;11.90;7.27;;;;;;;;;;704753;28;1068;-64
2024/02/29 00:29:09;;;;;;;11.33;7.13;;;;;;;;;;702640;28;1509;-64
2024/02/29 00:29:29;;;;;;;11.40;7.17;;;;;;;;;;703872;28;920;-63
2024/02/29 00:29:49;;;;;;;10.68;6.78;;;;;;;;;;704892;28;869;-64
2024/02/29 00:30:10;;;;;;;10.87;6.83;;;;;;;;;;700061;28;1820;-63
2024/02/29 00:30:30;;;;;;;11.83;7.37;;;;;;;;;;701870;28;943;-63
2024/02/29 00:30:50;;;;;;;12.27;7.25;;;;;;;;;;701914;28;975;-64
2024/02/29 00:31:11;;;;;;;11.90;7.10;;;;;;;;;;700680;28;2215;-64
2024/02/29 00:31:31;;;;;;;11.50;7.10;;;;;;;;;;702772;28;4430;-63
2024/02/29 00:31:51;;;;;;;12.00;7.10;;;;;;;;;;700176;28;950;-64
2024/02/29 00:32:12;;;;;;;12.20;7.23;;;;;;;;;;701751;28;1777;-64
2024/02/29 00:32:33;;;;;;;12.32;6.90;;;;;;;;;;704999;27;998;-63
2024/02/29 00:32:55;;;;;;;11.50;6.80;;;;;;;;;;702748;27;983;-64
2024/02/29 00:33:15;;;;;;;12.20;7.50;;;;;;;;;;702739;27;1677;-64
2024/02/29 00:33:35;;;;;;;13.87;7.30;;;;;;;;;;705352;27;986;-64
2024/02/29 00:33:56;;;;;;;11.57;6.40;;;;;;;;;;705152;27;793;-64
2024/02/29 00:34:16;;;;;;;12.15;7.18;;;;;;;;;;704038;27;1833;-64
2024/02/29 00:34:36;;;;;;;12.60;7.37;;;;;;;;;;701597;28;4439;-64
2024/02/29 00:34:57;;;;;;;11.90;6.93;;;;;;;;;;702246;28;825;-64
2024/02/29 00:35:17;;;;;;;12.50;7.15;;;;;;;;;;700769;28;1498;-64
2024/02/29 00:35:37;;;;;;;11.80;7.00;;;;;;;;;;703664;28;959;-64
2024/02/29 00:35:57;;;;;;;11.90;7.10;;;;;;;;;;702155;28;1285;-64
2024/02/29 00:36:18;;;;;;;11.33;6.90;;;;;;;;;;700348;28;1753;-63
2024/02/29 00:36:38;;;;;;;12.40;7.10;;;;;;;;;;705715;27;907;-64
2024/02/29 00:36:58;;;;;;;11.40;6.85;;;;;;;;;;702477;28;1272;-64
2024/02/29 00:37:19;;;;;;;10.20;6.67;;;;;;;;;;701020;28;1953;-64
2024/02/29 00:37:39;;;;;;;10.33;6.80;;;;;;;;;;700426;28;4411;-65
2024/02/29 00:38:00;;;;;;;12.00;6.70;;;;;;;;;;701554;28;1802;-65
2024/02/29 00:38:20;;;;;;;13.88;7.03;;;;;;;;;;701526;28;877;-64
2024/02/29 00:38:40;;;;;;;13.47;7.00;;;;;;;;;;702858;28;819;-64
2024/02/29 00:39:01;;;;;;;10.60;6.63;;;;;;;;;;704655;27;1934;-63
2024/02/29 00:39:21;;;;;;;10.57;6.60;;;;;;;;;;705176;27;1033;-64
2024/02/29 00:39:42;;;;;;;11.60;6.93;;;;;;;;;;705497;27;1298;-64
2024/02/29 00:40:02;;;;;;;11.83;6.97;;;;;;;;;;702540;28;2908;-64
2024/02/29 00:40:23;;;;;;;11.97;6.70;;;;;;;;;;703937;27;4355;-64
2024/02/29 00:40:43;;;;;;;12.00;6.82;;;;;;;;;;705260;27;1482;-64
2024/02/29 00:41:04;;;;;;;12.27;7.20;;;;;;;;;;704179;27;1734;-63
2024/02/29 00:41:24;;;;;;;12.40;7.17;;;;;;;;;;704888;27;998;-63
2024/02/29 00:41:44;;;;;;;12.00;6.90;;;;;;;;;;704432;28;935;-63
2024/02/29 00:42:05;;;;;;;11.97;6.63;;;;;;;;;;703439;27;1794;-64
2024/02/29 00:42:25;;;;;;;11.47;6.60;;;;;;;;;;703998;27;985;-64
2024/02/29 00:42:45;;;;;;;11.67;7.00;;;;;;;;;;703089;27;1909;-64
2024/02/29 00:43:05;;;;;;;11.27;6.95;;;;;;;;;;701176;27;2186;-64
2024/02/29 00:43:26;;;;;;;12.43;6.87;;;;;;;;;;702696;27;4474;-64
2024/02/29 00:43:46;;;;;;;12.77;7.00;;;;;;;;;;704575;27;900;-64
2024/02/29 00:44:06;;;;;;;12.15;6.95;;;;;;;;;;700893;27;1433;-63
2024/02/29 00:44:26;;;;;;;11.53;7.23;;;;;;;;;;704616;27;906;-64
2024/02/29 00:44:47;;;;;;;11.67;6.90;;;;;;;;;;704389;27;1022;-64
2024/02/29 00:45:07;;;;;;;12.57;7.13;;;;;;;;;;702995;27;1919;-63
2024/02/29 00:45:27;;;;;;;11.23;6.90;;;;;;;;;;703644;28;805;-64
2024/02/29 00:45:48;;;;;;;12.23;7.20;;;;;;;;;;702778;27;816;-64
2024/02/29 00:46:08;;;;;;;11.77;7.33;;;;;;;;;;703384;27;1461;-64
2024/02/29 00:46:29;;;;;;;11.13;7.20;;;;;;;;;;704343;27;4501;-64
2024/02/29 00:46:49;;;;;;;12.18;6.90;;;;;;;;;;705807;27;884;-64
2024/02/29 00:47:10;;;;;;;11.27;6.70;;;;;;;;;;702615;27;1739;-64
2024/02/29 00:47:31;;;;;;;11.02;7.05;;;;;;;;;;704018;27;1036;-64
2024/02/29 00:47:52;;;;;;;11.30;6.93;;;;;;;;;;702796;28;839;-64
2024/02/29 00:48:12;;;;;;;11.93;6.90;;;;;;;;;;699546;28;1754;-64
2024/02/29 00:48:32;;;;;;;13.05;7.28;;;;;;;;;;702093;28;948;-63
2024/02/29 00:48:53;;;;;;;12.73;7.50;;;;;;;;;;700251;28;1003;-64
2024/02/29 00:49:16;;;;;;;12.57;7.70;;;;;;;;;;698142;28;1695;-63
2024/02/29 00:49:36;;;;;;;10.85;6.70;;;;;;;;;;699297;28;4470;-63
2024/02/29 00:49:57;;;;;;;12.13;6.67;;;;;;;;;;701973;28;979;-64
2024/02/29 00:50:17;;;;;;;11.23;6.47;;;;;;;;;;700670;28;2304;-63
2024/02/29 00:50:37;;;;;;;13.45;6.88;;;;;;;;;;700039;28;1444;-64
2024/02/29 00:50:57;;;;;;;12.27;7.20;;;;;;;;;;702684;28;772;-64
2024/02/29 00:51:18;;;;;;;11.53;7.30;;;;;;;;;;699777;28;1489;-63
2024/02/29 00:51:38;;;;;;;12.25;7.25;;;;;;;;;;701286;28;1078;-64
2024/02/29 00:51:59;;;;;;;12.50;7.50;;;;;;;;;;702666;28;872;-64
2024/02/29 00:52:19;;;;;;;12.15;7.20;;;;;;;;;;700038;28;1879;-64
2024/02/29 00:52:39;;;;;;;11.63;7.00;;;;;;;;;;704885;27;4503;-63
2024/02/29 00:52:59;;;;;;;12.77;7.30;;;;;;;;;;705500;27;966;-64
2024/02/29 00:53:20;;;;;;;11.95;7.07;;;;;;;;;;704496;27;1459;-64
2024/02/29 00:53:40;;;;;;;12.77;6.90;;;;;;;;;;705728;27;839;-64
2024/02/29 00:54:00;;;;;;;11.40;6.97;;;;;;;;;;701674;27;2146;-66
2024/02/29 00:54:24;;;;;;;10.95;6.82;;;;;;;;;;705480;27;927;-64
2024/02/29 00:54:44;;;;;;;12.02;7.22;;;;;;;;;;706243;27;829;-64
2024/02/29 00:55:06;;;;;;;11.93;7.37;;;;;;;;;;703938;27;1714;-64
2024/02/29 00:55:27;;;;;;;11.23;6.70;;;;;;;;;;704126;27;4446;-64
2024/02/29 00:55:47;;;;;;;11.43;6.90;;;;;;;;;;705015;27;776;-64
2024/02/29 00:56:08;;;;;;;12.45;7.00;;;;;;;;;;698255;28;1771;-64
2024/02/29 00:56:28;;;;;;;12.52;7.22;;;;;;;;;;699494;28;1043;-65
2024/02/29 00:56:49;;;;;;;12.17;7.00;;;;;;;;;;699472;28;1026;-64
2024/02/29 00:57:09;;;;;;;11.90;6.77;;;;;;;;;;698505;28;2262;-64
2024/02/29 00:57:29;;;;;;;12.63;7.07;;;;;;;;;;699618;28;904;-63
2024/02/29 00:57:51;;;;;;;12.27;7.10;;;;;;;;;;699837;28;943;-64
2024/02/29 00:58:11;;;;;;;14.00;7.65;;;;;;;;;;703981;27;1668;-65
2024/02/29 00:58:31;;;;;;;12.33;7.47;;;;;;;;;;703792;28;4303;-64
2024/02/29 00:58:52;;;;;;;12.93;7.55;;;;;;;;;;705423;27;799;-65
2024/02/29 00:59:12;;;;;;;12.50;7.63;;;;;;;;;;703637;27;1707;-64
2024/02/29 00:59:32;;;;;;;11.80;7.10;;;;;;;;;;703638;28;817;-65
2024/02/29 00:59:53;;;;;;;11.65;7.15;;;;;;;;;;705327;27;797;-64
2024/02/29 01:00:13;;;;;;;11.70;6.73;;;;;;;;;;702676;27;2566;-64
2024/02/29 01:00:33;;;;;;;12.33;7.13;;;;;;;;;;705787;27;966;-65
2024/02/29 01:00:54;;;;;;;11.43;7.15;;;;;;;;;;705774;27;850;-64
2024/02/29 01:01:14;;;;;;;12.17;7.50;;;;;;;;;;703538;27;1709;-64
2024/02/29 01:01:34;;;;;;;12.53;7.47;;;;;;;;;;704108;27;4300;-64
2024/02/29 01:01:55;;;;;;;12.10;7.23;;;;;;;;;;702813;28;1026;-64
2024/02/29 01:02:16;;;;;;;12.15;7.10;;;;;;;;;;701702;28;1682;-64
2024/02/29 01:02:36;;;;;;;12.23;7.33;;;;;;;;;;702014;28;769;-65
2024/02/29 01:02:56;;;;;;;12.38;7.45;;;;;;;;;;702307;28;1929;-64
2024/02/29 01:03:16;;;;;;;13.03;6.90;;;;;;;;;;698441;28;1831;-66
2024/02/29 01:03:37;;;;;;;12.93;6.80;;;;;;;;;;698996;28;994;-62
2024/02/29 01:03:57;;;;;;;12.23;7.05;;;;;;;;;;703171;28;923;-64
2024/02/29 01:04:17;;;;;;;12.70;7.50;;;;;;;;;;700767;28;1028;-64
2024/02/29 01:04:37;;;;;;;12.90;7.63;;;;;;;;;;701388;28;4280;-64
2024/02/29 01:04:58;;;;;;;13.13;7.60;;;;;;;;;;702747;28;2426;-64
2024/02/29 01:05:18;;;;;;;14.33;7.90;;;;;;;;;;701700;27;3581;-64
2024/02/29 01:05:39;;;;;;;13.95;7.68;;;;;;;;;;703132;27;970;-63
2024/02/29 01:05:59;;;;;;;13.23;7.67;;;;;;;;;;700960;28;1252;-63
2024/02/29 01:06:19;;;;;;;12.87;7.70;;;;;;;;;;700588;28;1037;-63
2024/02/29 01:06:39;;;;;;;12.02;7.47;;;;;;;;;;703179;28;773;-63
2024/02/29 01:07:00;;;;;;;12.30;7.27;;;;;;;;;;701542;28;989;-63
2024/02/29 01:07:20;;;;;;;11.10;7.43;;;;;;;;;;699564;28;4429;-63
2024/02/29 01:07:40;;;;;;;11.27;7.13;;;;;;;;;;702736;28;872;-63
2024/02/29 01:08:01;;;;;;;11.53;7.03;;;;;;;;;;704023;27;862;-64
2024/02/29 01:08:22;;;;;;;12.70;7.20;;;;;;;;;;702329;27;2348;-64
2024/02/29 01:08:42;;;;;;;12.15;6.82;;;;;;;;;;704629;27;1002;-65
2024/02/29 01:09:04;;;;;;;10.13;6.57;;;;;;;;;;701427;28;1928;-64
2024/02/29 01:09:27;;;;;;;12.20;7.20;;;;;;;;;;701698;28;808;-64
2024/02/29 01:09:47;;;;;;;13.00;7.45;;;;;;;;;;701072;28;944;-64
2024/02/29 01:10:11;;;;;;;12.33;7.40;;;;;;;;;;700532;28;882;-64
2024/02/29 01:10:31;;;;;;;13.48;7.53;;;;;;;;;;701505;28;4482;-64
2024/02/29 01:10:52;;;;;;;12.45;7.63;;;;;;;;;;700064;28;920;-64
2024/02/29 01:11:12;;;;;;;11.60;7.13;;;;;;;;;;700978;28;1738;-63
2024/02/29 01:11:32;;;;;;;12.53;7.73;;;;;;;;;;703740;27;862;-65
2024/02/29 01:11:53;;;;;;;11.90;7.28;;;;;;;;;;704862;27;824;-64
2024/02/29 01:12:13;;;;;;;12.77;7.37;;;;;;;;;;701830;27;2269;-64
2024/02/29 01:12:39;;;;;;;13.10;7.37;;;;;;;;;;702142;28;1290;-64
2024/02/29 01:12:59;;;;;;;12.32;7.22;;;;;;;;;;701909;28;999;-64
2024/02/29 01:13:19;;;;;;;12.63;7.20;;;;;;;;;;699830;28;4326;-64
2024/02/29 01:13:40;;;;;;;11.90;6.87;;;;;;;;;;701587;28;966;-64
2024/02/29 01:14:02;;;;;;;12.90;7.30;;;;;;;;;;700996;28;797;-64
2024/02/29 01:14:22;;;;;;;12.32;7.18;;;;;;;;;;703003;28;1164;-65
2024/02/29 01:14:43;;;;;;;11.60;6.90;;;;;;;;;;704882;27;774;-65
2024/02/29 01:15:03;;;;;;;13.32;7.50;;;;;;;;;;703034;27;2527;-64
2024/02/29 01:15:23;;;;;;;14.50;7.40;;;;;;;;;;702306;28;963;-64
2024/02/29 01:15:45;;;;;;;14.30;7.80;;;;;;;;;;705988;27;931;-64
2024/02/29 01:16:05;;;;;;;13.35;7.65;;;;;;;;;;703700;27;1765;-63
2024/02/29 01:16:25;;;;;;;12.90;7.37;;;;;;;;;;704418;27;4361;-65
2024/02/29 01:16:45;;;;;;;11.83;7.40;;;;;;;;;;705103;27;856;-64
2024/02/29 01:17:06;;;;;;;14.60;7.88;;;;;;;;;;700787;28;1876;-63
2024/02/29 01:17:26;;;;;;;15.00;7.80;;;;;;;;;;701807;28;804;-64
2024/02/29 01:17:46;;;;;;;13.43;7.60;;;;;;;;;;700719;28;782;-65
2024/02/29 01:18:07;;;;;;;13.85;7.43;;;;;;;;;;699531;28;1724;-65
2024/02/29 01:18:27;;;;;;;12.03;7.47;;;;;;;;;;700322;28;1540;-64
2024/02/29 01:18:47;;;;;;;12.32;7.40;;;;;;;;;;699250;28;1131;-64
2024/02/29 01:19:07;;;;;;;13.77;7.53;;;;;;;;;;699758;28;1012;-64
2024/02/29 01:19:28;;;;;;;13.10;7.67;;;;;;;;;;699607;28;4324;-64
2024/02/29 01:19:48;;;;;;;13.73;7.70;;;;;;;;;;703344;28;961;-64
2024/02/29 01:20:09;;;;;;;12.37;7.03;;;;;;;;;;696747;28;1859;-64
2024/02/29 01:20:29;;;;;;;12.67;7.03;;;;;;;;;;701350;28;1042;-64
2024/02/29 01:20:49;;;;;;;13.70;7.63;;;;;;;;;;702670;28;744;-64
2024/02/29 01:21:09;;;;;;;13.20;7.77;;;;;;;;;;701054;28;2001;-65
2024/02/29 01:21:30;;;;;;;13.13;7.47;;;;;;;;;;703308;28;805;-63
2024/02/29 01:21:50;;;;;;;12.63;7.53;;;;;;;;;;700276;28;867;-64
2024/02/29 01:22:10;;;;;;;12.83;7.57;;;;;;;;;;703139;27;943;-64
2024/02/29 01:22:31;;;;;;;13.10;7.27;;;;;;;;;;703593;28;4692;-64
2024/02/29 01:22:51;;;;;;;12.65;7.25;;;;;;;;;;706164;27;1918;-64
2024/02/29 01:23:11;;;;;;;12.00;7.30;;;;;;;;;;701979;27;1248;-64
2024/02/29 01:23:31;;;;;;;13.60;7.32;;;;;;;;;;704118;28;915;-64
2024/02/29 01:23:52;;;;;;;13.50;7.47;;;;;;;;;;704201;28;1153;-64
2024/02/29 01:24:12;;;;;;;12.57;7.10;;;;;;;;;;702168;28;1962;-63
2024/02/29 01:24:32;;;;;;;12.60;7.25;;;;;;;;;;704621;27;741;-64
2024/02/29 01:24:52;;;;;;;12.63;7.53;;;;;;;;;;706171;27;892;-64
2024/02/29 01:25:13;;;;;;;14.00;7.50;;;;;;;;;;702760;27;1465;-63
2024/02/29 01:25:33;;;;;;;11.43;6.80;;;;;;;;;;700192;28;4760;-63
2024/02/29 01:25:53;;;;;;;11.70;6.90;;;;;;;;;;702371;28;1168;-64
2024/02/29 01:26:14;;;;;;;13.07;7.50;;;;;;;;;;699219;28;1808;-64
2024/02/29 01:26:34;;;;;;;12.43;7.22;;;;;;;;;;700668;28;1528;-65
2024/02/29 01:26:54;;;;;;;12.57;7.53;;;;;;;;;;699462;28;872;-64
2024/02/29 01:27:15;;;;;;;14.00;7.07;;;;;;;;;;697361;28;1582;-65
2024/02/29 01:27:35;;;;;;;14.32;7.45;;;;;;;;;;701254;28;1445;-65
2024/02/29 01:27:55;;;;;;;14.17;8.33;;;;;;;;;;702819;28;904;-64
2024/02/29 01:28:15;;;;;;;14.43;8.10;;;;;;;;;;699582;28;1797;-64
2024/02/29 01:28:36;;;;;;;12.70;7.65;;;;;;;;;;704775;27;4453;-64
2024/02/29 01:28:56;;;;;;;12.33;7.40;;;;;;;;;;705141;27;722;-64
2024/02/29 01:29:16;;;;;;;12.63;7.53;;;;;;;;;;701681;28;2333;-64
2024/02/29 01:29:38;;;;;;;13.27;7.38;;;;;;;;;;703987;27;1184;-64
2024/02/29 01:29:58;;;;;;;12.48;7.15;;;;;;;;;;702610;28;2020;-65
2024/02/29 01:30:19;;;;;;;12.80;7.97;;;;;;;;;;699309;28;1727;-64
2024/02/29 01:30:39;;;;;;;12.90;8.00;;;;;;;;;;701146;28;1018;-64
2024/02/29 01:31:00;;;;;;;12.00;7.30;;;;;;;;;;699107;28;1591;-64
2024/02/29 01:31:20;;;;;;;13.13;7.50;;;;;;;;;;698461;28;4591;-65
2024/02/29 01:31:40;;;;;;;12.93;7.37;;;;;;;;;;701139;27;774;-64
2024/02/29 01:32:01;;;;;;;12.63;7.53;;;;;;;;;;703463;28;920;-62
2024/02/29 01:32:21;;;;;;;12.57;7.68;;;;;;;;;;701696;28;1924;-65
2024/02/29 01:32:41;;;;;;;12.90;7.60;;;;;;;;;;703318;27;1062;-64
2024/02/29 01:33:02;;;;;;;13.40;7.50;;;;;;;;;;704103;27;915;-65
2024/02/29 01:33:22;;;;;;;12.90;7.50;;;;;;;;;;702406;28;1755;-64
2024/02/29 01:33:42;;;;;;;12.53;7.63;;;;;;;;;;704515;28;891;-65
2024/02/29 01:34:04;;;;;;;12.70;7.50;;;;;;;;;;703589;27;924;-65
2024/02/29 01:34:24;;;;;;;13.32;7.40;;;;;;;;;;704191;27;4449;-65
2024/02/29 01:34:44;;;;;;;13.27;7.37;;;;;;;;;;703999;28;921;-64
2024/02/29 01:35:05;;;;;;;12.95;7.63;;;;;;;;;;703125;27;1675;-65
2024/02/29 01:35:25;;;;;;;13.57;8.10;;;;;;;;;;703250;27;789;-65
2024/02/29 01:35:45;;;;;;;12.77;7.60;;;;;;;;;;705714;27;829;-64
2024/02/29 01:36:06;;;;;;;11.93;7.27;;;;;;;;;;701922;28;2592;-65
2024/02/29 01:36:26;;;;;;;12.07;6.95;;;;;;;;;;703683;27;848;-64
2024/02/29 01:36:47;;;;;;;11.40;6.60;;;;;;;;;;705824;27;1153;-65
2024/02/29 01:37:07;;;;;;;12.20;7.10;;;;;;;;;;698452;28;2287;-65
2024/02/29 01:37:27;;;;;;;12.20;7.35;;;;;;;;;;702317;28;4497;-64
2024/02/29 01:37:49;;;;;;;12.40;6.93;;;;;;;;;;700952;28;1005;-64
2024/02/29 01:38:09;;;;;;;12.15;7.18;;;;;;;;;;700144;28;979;-64
2024/02/29 01:38:30;;;;;;;11.67;7.20;;;;;;;;;;699402;28;770;-64
2024/02/29 01:38:50;;;;;;;11.93;7.38;;;;;;;;;;700829;28;1252;-65
2024/02/29 01:39:10;;;;;;;12.47;7.13;;;;;;;;;;703337;27;903;-65
2024/02/29 01:39:32;;;;;;;12.27;7.40;;;;;;;;;;701520;28;1175;-64
2024/02/29 01:39:52;;;;;;;11.93;7.57;;;;;;;;;;701665;28;974;-65
2024/02/29 01:40:15;;;;;;;13.60;7.93;;;;;;;;;;700480;28;2528;-65
2024/02/29 01:40:35;;;;;;;13.02;7.68;;;;;;;;;;701832;28;4375;-64
2024/02/29 01:40:55;;;;;;;12.67;7.27;;;;;;;;;;703221;28;1441;-65
2024/02/29 01:41:18;;;;;;;11.93;7.35;;;;;;;;;;699153;28;894;-65
2024/02/29 01:41:39;;;;;;;12.57;7.30;;;;;;;;;;700775;28;1176;-65
2024/02/29 01:42:00;;;;;;;12.23;7.53;;;;;;;;;;701437;28;880;-65
2024/02/29 01:42:20;;;;;;;12.83;7.53;;;;;;;;;;698612;28;1445;-64
2024/02/29 01:42:41;;;;;;;12.73;7.72;;;;;;;;;;701077;28;884;-65
2024/02/29 01:43:02;;;;;;;13.45;7.85;;;;;;;;;;701890;28;2363;-65
2024/02/29 01:43:22;;;;;;;13.82;7.97;;;;;;;;;;702564;27;4445;-64
2024/02/29 01:43:55;;;;;;;15.07;8.47;;;;;;;;;;704768;27;860;-65
2024/02/29 01:44:15;;;;;;;13.38;8.07;;;;;;;;;;702082;27;1033;-65
2024/02/29 01:44:42;;;;;;;13.47;7.93;;;;;;;;;;703324;28;1138;-67
2024/02/29 01:45:02;;;;;;;13.40;7.85;;;;;;;;;;700197;28;1010;-65
2024/02/29 01:45:23;;;;;;;13.43;7.43;;;;;;;;;;697343;28;2182;-66
2024/02/29 01:45:43;;;;;;;13.47;7.80;;;;;;;;;;699444;28;849;-65
2024/02/29 01:46:10;;;;;;;13.33;7.57;;;;;;;;;;700376;28;858;-65
2024/02/29 01:46:31;;;;;;;12.35;7.35;;;;;;;;;;700603;28;4353;-65
2024/02/29 01:46:51;;;;;;;12.97;7.57;;;;;;;;;;703586;27;896;-65
2024/02/29 01:47:12;;;;;;;13.80;8.10;;;;;;;;;;704536;27;2189;-64
2024/02/29 01:47:33;;;;;;;13.80;8.13;;;;;;;;;;704838;28;943;-64
2024/02/29 01:47:53;;;;;;;13.37;7.90;;;;;;;;;;704432;27;861;-65
2024/02/29 01:48:13;;;;;;;12.70;7.40;;;;;;;;;;700515;28;1040;-65
2024/02/29 01:48:34;;;;;;;14.07;7.70;;;;;;;;;;701224;28;781;-66
2024/02/29 01:48:55;;;;;;;14.07;7.80;;;;;;;;;;702173;28;916;-65
2024/02/29 01:49:16;;;;;;;12.13;7.60;;;;;;;;;;699567;28;1466;-64
2024/02/29 01:49:36;;;;;;;12.60;8.00;;;;;;;;;;701290;28;4356;-64
2024/02/29 01:49:58;;;;;;;13.55;8.10;;;;;;;;;;700934;28;1237;-64
2024/02/29 01:50:19;;;;;;;12.65;7.93;;;;;;;;;;701912;27;2537;-64
2024/02/29 01:50:39;;;;;;;13.13;7.90;;;;;;;;;;704665;27;928;-64
2024/02/29 01:50:59;;;;;;;12.73;7.87;;;;;;;;;;703285;28;877;-64
2024/02/29 01:51:20;;;;;;;13.87;8.03;;;;;;;;;;699396;28;1998;-64
2024/02/29 01:51:41;;;;;;;14.50;8.13;;;;;;;;;;700974;28;1274;-64
2024/02/29 01:52:01;;;;;;;14.23;7.93;;;;;;;;;;701179;28;869;-65
2024/02/29 01:52:22;;;;;;;14.13;7.80;;;;;;;;;;699637;28;4423;-64
2024/02/29 01:52:43;;;;;;;13.37;7.83;;;;;;;;;;702912;27;876;-64
2024/02/29 01:53:04;;;;;;;12.60;7.85;;;;;;;;;;705644;27;916;-64
2024/02/29 01:53:24;;;;;;;13.77;7.90;;;;;;;;;;702109;28;1111;-64
2024/02/29 01:53:45;;;;;;;13.23;7.78;;;;;;;;;;705627;27;795;-65
2024/02/29 01:54:05;;;;;;;13.97;7.73;;;;;;;;;;700733;28;1784;-65
2024/02/29 01:54:25;;;;;;;14.20;8.32;;;;;;;;;;704326;27;896;-65
2024/02/29 01:54:46;;;;;;;13.80;8.03;;;;;;;;;;706988;27;813;-65
2024/02/29 01:55:06;;;;;;;13.52;7.60;;;;;;;;;;702699;27;1773;-64
2024/02/29 01:55:27;;;;;;;13.20;8.07;;;;;;;;;;704637;27;4254;-64
2024/02/29 01:55:47;;;;;;;13.75;8.05;;;;;;;;;;706139;27;899;-64
2024/02/29 01:56:09;;;;;;;14.43;7.77;;;;;;;;;;700360;28;1782;-65
2024/02/29 01:56:29;;;;;;;13.93;8.13;;;;;;;;;;701185;28;742;-65
2024/02/29 01:56:50;;;;;;;14.00;8.20;;;;;;;;;;702050;28;1078;-65
2024/02/29 01:57:10;;;;;;;12.98;8.07;;;;;;;;;;700479;28;1697;-63
2024/02/29 01:57:31;;;;;;;13.60;7.77;;;;;;;;;;701559;28;900;-64
2024/02/29 01:57:51;;;;;;;13.13;7.57;;;;;;;;;;701528;28;924;-64
2024/02/29 01:58:12;;;;;;;12.00;7.45;;;;;;;;;;701873;27;2352;-66
2024/02/29 01:58:33;;;;;;;13.67;7.60;;;;;;;;;;703917;27;4240;-64
2024/02/29 01:58:55;;;;;;;14.93;7.97;;;;;;;;;;705746;27;971;-64
2024/02/29 01:59:16;;;;;;;14.48;8.30;;;;;;;;;;699890;28;1917;-64
2024/02/29 01:59:37;;;;;;;13.18;7.97;;;;;;;;;;701534;28;1019;-64
2024/02/29 01:59:57;;;;;;;12.98;7.50;;;;;;;;;;699698;28;817;-64
2024/02/29 02:00:17;;;;;;;13.90;8.13;;;;;;;;;;699786;28;1549;-64
2024/02/29 02:00:38;;;;;;;13.80;8.07;;;;;;;;;;701836;28;873;-64
2024/02/29 02:00:58;;;;;;;12.70;7.57;;;;;;;;;;701579;28;908;-65
2024/02/29 02:01:19;;;;;;;13.03;7.67;;;;;;;;;;701406;28;3871;-65
2024/02/29 02:01:39;;;;;;;13.27;7.78;;;;;;;;;;701865;28;4448;-64
2024/02/29 02:01:59;;;;;;;14.47;8.30;;;;;;;;;;700731;28;5126;-63
2024/02/29 02:02:20;;;;;;;13.98;8.00;;;;;;;;;;698804;28;1822;-63
2024/02/29 02:02:40;;;;;;;14.40;8.33;;;;;;;;;;700922;28;879;-63
2024/02/29 02:03:00;;;;;;;14.87;7.90;;;;;;;;;;701142;28;1973;-62
2024/02/29 02:03:21;;;;;;;14.35;8.27;;;;;;;;;;699415;28;2015;-63
2024/02/29 02:03:42;;;;;;;14.40;8.20;;;;;;;;;;702662;27;1302;-63
2024/02/29 02:04:02;;;;;;;15.35;8.23;;;;;;;;;;702769;27;789;-63
2024/02/29 02:04:22;;;;;;;14.50;8.13;;;;;;;;;;703186;27;4427;-63
2024/02/29 02:04:42;;;;;;;13.80;7.75;;;;;;;;;;705102;27;852;-61
2024/02/29 02:05:03;;;;;;;13.60;8.03;;;;;;;;;;704731;27;896;-63
2024/02/29 02:05:23;;;;;;;13.60;8.45;;;;;;;;;;701957;28;1528;-64
2024/02/29 02:05:44;;;;;;;13.07;7.57;;;;;;;;;;705823;27;817;-64
2024/02/29 02:06:04;;;;;;;14.53;8.00;;;;;;;;;;704599;27;777;-64